Time;durP1;ratioP1;P1;durP2;ratioP2;P2;SDS_P1;SDS_P2;PMS_P1;PMS_P2;Temp;Humidity;BMP_temperature;BMP_pressure;BME280_temperature;BME280_humidity;BME280_pressure;Samples;Min_cycle;Max_cycle;Signal;HPM_P1;HPM_P2
2021/11/08 00:00:32;;;;;;;12.07;3.60;;;7.00;99.90;;;;;;2096172;28;20052;-73
2021/11/08 00:01:33;;;;;;;10.38;3.72;;;7.00;99.90;;;;;;2096214;28;20077;-72
2021/11/08 00:02:36;;;;;;;9.32;3.67;;;7.00;99.90;;;;;;2096625;28;20537;-72
2021/11/08 00:03:41;;;;;;;10.35;3.53;;;7.00;99.90;;;;;;2096546;28;20024;-72
2021/11/08 00:04:41;;;;;;;11.25;3.40;;;7.00;99.90;;;;;;2097179;28;20396;-74
2021/11/08 00:05:44;;;;;;;9.23;3.00;;;7.00;99.90;;;;;;2097062;28;20037;-71
2021/11/08 00:06:44;;;;;;;12.82;3.40;;;6.90;99.90;;;;;;2096525;28;20070;-74
2021/11/08 00:07:48;;;;;;;7.97;3.35;;;7.00;99.90;;;;;;2096589;28;20024;-72
2021/11/08 00:08:48;;;;;;;10.25;3.55;;;6.90;99.90;;;;;;2097158;28;20066;-71
2021/11/08 00:09:49;;;;;;;11.13;3.42;;;7.00;99.90;;;;;;2096509;28;20505;-73
2021/11/08 00:10:51;;;;;;;12.82;3.45;;;7.00;99.90;;;;;;2096070;28;20032;-71
2021/11/08 00:11:51;;;;;;;8.50;3.20;;;7.00;99.90;;;;;;2096611;28;20027;-73
2021/11/08 00:12:52;;;;;;;13.10;3.42;;;7.00;99.90;;;;;;2096336;28;20502;-72
2021/11/08 00:13:53;;;;;;;11.65;3.03;;;7.10;99.90;;;;;;2096508;28;20032;-71
2021/11/08 00:14:57;;;;;;;12.35;3.53;;;7.10;99.90;;;;;;2096692;28;20392;-71
2021/11/08 00:20:43;;;;;;;10.93;3.30;;;7.20;99.90;;;;;;2096670;28;20013;-71
2021/11/08 00:21:46;;;;;;;10.13;3.03;;;7.20;99.90;;;;;;2096480;28;20029;-72
2021/11/08 00:22:47;;;;;;;11.75;3.17;;;7.30;99.90;;;;;;2096666;28;20100;-73
2021/11/08 00:23:50;;;;;;;10.05;3.42;;;7.30;99.90;;;;;;2097210;28;20078;-73
2021/11/08 00:24:52;;;;;;;12.82;3.28;;;7.30;99.90;;;;;;2097303;28;20060;-73
2021/11/08 00:25:52;;;;;;;12.73;3.40;;;7.30;99.90;;;;;;2096551;28;20037;-73
2021/11/08 00:26:54;;;;;;;8.38;2.80;;;7.30;99.90;;;;;;2097045;28;20070;-70
2021/11/08 00:27:55;;;;;;;9.38;3.30;;;7.40;99.90;;;;;;2096480;28;20028;-72
2021/11/08 00:28:56;;;;;;;11.95;3.30;;;7.30;99.90;;;;;;2088332;28;20037;-73
2021/11/08 00:29:57;;;;;;;11.10;3.17;;;7.40;99.90;;;;;;2096422;28;20097;-74
2021/11/08 00:30:57;;;;;;;8.80;3.13;;;7.40;99.90;;;;;;2095909;28;20060;-71
2021/11/08 00:31:58;;;;;;;9.75;3.08;;;7.30;99.90;;;;;;2088193;28;20397;-71
2021/11/08 00:32:59;;;;;;;10.30;3.10;;;7.30;99.90;;;;;;2096531;28;20373;-72
2021/11/08 00:33:59;;;;;;;8.00;2.83;;;7.30;99.90;;;;;;2096361;28;20024;-72
2021/11/08 00:35:00;;;;;;;12.90;3.40;;;7.40;99.90;;;;;;2088377;28;20634;-72
2021/11/08 00:36:02;;;;;;;11.40;3.10;;;7.30;99.90;;;;;;2096519;28;20032;-71
2021/11/08 00:37:03;;;;;;;12.75;3.40;;;7.40;99.90;;;;;;2097185;28;20043;-71
2021/11/08 00:38:04;;;;;;;10.27;3.30;;;7.40;99.90;;;;;;2097382;28;20032;-72
2021/11/08 00:39:05;;;;;;;12.05;3.53;;;7.40;99.90;;;;;;2096639;28;20042;-71
2021/11/08 00:40:07;;;;;;;10.40;3.05;;;7.40;99.90;;;;;;2096737;28;20472;-71
2021/11/08 00:41:07;;;;;;;8.15;3.15;;;7.40;99.90;;;;;;2097518;28;20476;-72
2021/11/08 00:42:08;;;;;;;7.30;2.92;;;7.40;99.90;;;;;;2091501;28;20025;-72
2021/11/08 00:43:09;;;;;;;7.95;2.88;;;7.40;99.90;;;;;;2092153;28;20112;-72
2021/11/08 00:44:09;;;;;;;7.93;3.03;;;7.40;99.90;;;;;;2099990;28;20032;-72
2021/11/08 00:45:11;;;;;;;10.90;3.35;;;7.40;99.90;;;;;;2097367;28;20028;-72
2021/11/08 00:46:12;;;;;;;8.93;3.00;;;7.40;99.90;;;;;;2097135;28;20024;-72
2021/11/08 00:47:13;;;;;;;10.18;3.38;;;7.40;99.90;;;;;;2096237;28;20694;-73
2021/11/08 00:48:16;;;;;;;10.13;2.85;;;7.50;99.90;;;;;;2096403;28;20044;-71
2021/11/08 00:49:17;;;;;;;8.65;2.90;;;7.50;99.90;;;;;;2096298;28;20087;-73
2021/11/08 00:50:18;;;;;;;9.75;3.00;;;7.40;99.90;;;;;;2096470;28;20048;-73
2021/11/08 00:51:19;;;;;;;11.85;3.50;;;7.50;99.90;;;;;;2095690;28;20440;-72
2021/11/08 00:52:19;;;;;;;7.20;2.83;;;7.50;99.90;;;;;;2096631;28;20103;-73
2021/11/08 00:53:21;;;;;;;10.70;3.15;;;7.50;99.90;;;;;;2097029;28;20029;-73
2021/11/08 00:54:22;;;;;;;13.93;3.60;;;7.50;99.90;;;;;;2096938;28;20517;-72
2021/11/08 00:55:25;;;;;;;11.98;3.05;;;7.50;99.90;;;;;;2096848;28;20032;-70
2021/11/08 00:56:26;;;;;;;8.82;3.03;;;7.50;99.90;;;;;;2096856;28;20427;-72
2021/11/08 00:57:31;;;;;;;9.65;3.05;;;7.50;99.90;;;;;;2096945;28;20052;-73
2021/11/08 00:58:35;;;;;;;11.85;3.28;;;7.50;99.90;;;;;;2097010;28;20016;-72
2021/11/08 00:59:36;;;;;;;9.98;3.17;;;7.50;99.90;;;;;;2096937;28;20024;-72
2021/11/08 01:00:37;;;;;;;10.90;3.40;;;7.50;99.90;;;;;;2096518;28;20458;-72
2021/11/08 01:01:38;;;;;;;9.20;2.92;;;7.50;99.90;;;;;;2096620;28;20028;-72
2021/11/08 01:02:40;;;;;;;8.57;2.85;;;7.50;99.90;;;;;;2096771;28;20480;-72
2021/11/08 01:03:43;;;;;;;10.82;3.20;;;7.50;99.90;;;;;;2096979;28;20024;-72
2021/11/08 01:04:44;;;;;;;10.52;3.17;;;7.50;99.90;;;;;;2096881;28;20033;-72
2021/11/08 01:05:45;;;;;;;11.43;3.45;;;7.50;99.90;;;;;;2096356;28;20361;-70
2021/11/08 01:06:48;;;;;;;10.05;3.08;;;7.50;99.90;;;;;;2096390;28;20858;-71
2021/11/08 01:07:48;;;;;;;11.95;3.33;;;7.50;99.90;;;;;;2096887;28;20051;-71
2021/11/08 01:08:49;;;;;;;9.30;2.97;;;7.60;99.90;;;;;;2096884;28;20029;-72
2021/11/08 01:09:50;;;;;;;10.00;3.15;;;7.60;99.90;;;;;;2096890;28;20048;-71
2021/11/08 01:10:51;;;;;;;13.32;3.53;;;7.60;99.90;;;;;;2095668;28;20488;-72
2021/11/08 01:11:51;;;;;;;10.20;3.40;;;7.60;99.90;;;;;;2095993;28;20032;-72
2021/11/08 01:12:52;;;;;;;11.23;3.33;;;7.60;99.90;;;;;;2096914;28;20397;-71
2021/11/08 01:13:52;;;;;;;9.80;3.05;;;7.60;99.90;;;;;;2096141;28;20538;-71
2021/11/08 01:14:54;;;;;;;10.55;3.08;;;7.60;99.90;;;;;;2096085;28;20033;-71
2021/11/08 01:15:56;;;;;;;10.73;3.20;;;7.60;99.90;;;;;;2096193;28;20104;-71
2021/11/08 01:16:57;;;;;;;11.63;3.45;;;7.60;99.90;;;;;;2096270;28;20051;-72
2021/11/08 01:17:58;;;;;;;13.07;3.10;;;7.60;99.90;;;;;;2096242;28;20033;-71
2021/11/08 01:18:58;;;;;;;11.88;3.50;;;7.60;99.90;;;;;;2096858;28;20052;-72
2021/11/08 01:20:00;;;;;;;12.60;3.35;;;7.60;99.90;;;;;;2096937;28;20033;-71
2021/11/08 01:21:01;;;;;;;10.95;3.10;;;7.60;99.90;;;;;;2096503;28;20025;-72
2021/11/08 01:22:16;;;;;;;10.00;3.20;;;7.60;99.90;;;;;;2096043;28;20040;-72
2021/11/08 01:23:20;;;;;;;10.40;2.88;;;7.60;99.90;;;;;;2096744;28;20029;-72
2021/11/08 01:24:21;;;;;;;13.18;3.33;;;7.60;99.90;;;;;;2097024;28;20024;-72
2021/11/08 01:25:21;;;;;;;9.98;3.15;;;7.60;99.90;;;;;;2097233;28;20024;-74
2021/11/08 01:26:22;;;;;;;11.68;3.40;;;7.60;99.90;;;;;;2096508;28;20070;-72
2021/11/08 01:27:32;;;;;;;9.63;3.10;;;7.70;99.90;;;;;;2096221;28;20045;-72
2021/11/08 01:28:40;;;;;;;12.52;3.28;;;7.70;99.90;;;;;;2096827;28;20021;-73
2021/11/08 01:29:41;;;;;;;11.57;2.97;;;7.70;99.90;;;;;;2096961;28;20035;-72
2021/11/08 01:30:42;;;;;;;9.27;3.15;;;7.70;99.90;;;;;;2096510;28;20032;-73
2021/11/08 01:31:42;;;;;;;15.93;3.40;;;7.70;99.90;;;;;;2096648;28;20031;-72
2021/11/08 01:32:54;;;;;;;10.45;3.00;;;7.70;99.90;;;;;;2096832;28;20028;-72
2021/11/08 01:33:54;;;;;;;9.38;3.25;;;7.70;99.90;;;;;;2096639;28;20498;-72
2021/11/08 01:34:56;;;;;;;12.20;2.92;;;7.70;99.90;;;;;;2096218;28;20029;-72
2021/11/08 01:36:08;;;;;;;11.50;3.50;;;7.70;99.90;;;;;;2096990;28;20078;-72
2021/11/08 01:37:10;;;;;;;8.77;3.10;;;7.70;99.90;;;;;;2096364;28;20024;-71
2021/11/08 01:38:24;;;;;;;8.52;3.20;;;7.70;99.90;;;;;;2089372;28;20416;-73
2021/11/08 01:39:32;;;;;;;9.52;2.90;;;7.80;99.90;;;;;;2098229;28;20025;-71
2021/11/08 01:40:34;;;;;;;12.90;3.55;;;7.70;99.90;;;;;;2097556;28;20519;-71
2021/11/08 01:41:35;;;;;;;11.68;3.13;;;7.80;99.90;;;;;;2089644;28;20526;-71
2021/11/08 01:42:36;;;;;;;11.75;3.10;;;7.70;99.90;;;;;;2089586;28;20033;-73
2021/11/08 01:43:37;;;;;;;8.60;3.10;;;7.70;99.90;;;;;;2098051;28;20044;-72
2021/11/08 01:44:38;;;;;;;13.52;3.42;;;7.80;99.90;;;;;;2098637;28;20085;-72
2021/11/08 01:45:39;;;;;;;9.15;2.83;;;7.80;99.90;;;;;;2098414;28;20036;-73
2021/11/08 01:46:40;;;;;;;12.77;3.30;;;7.80;99.90;;;;;;2101845;28;20117;-72
2021/11/08 01:47:41;;;;;;;8.43;2.85;;;7.80;99.90;;;;;;2100590;28;20119;-73
2021/11/08 01:48:42;;;;;;;13.00;3.17;;;7.80;99.90;;;;;;2099498;28;20021;-72
2021/11/08 01:49:43;;;;;;;10.10;3.00;;;7.80;99.90;;;;;;2100119;28;20637;-74
2021/11/08 01:50:44;;;;;;;10.52;3.25;;;7.80;99.90;;;;;;2099238;28;20078;-72
2021/11/08 01:51:44;;;;;;;10.50;3.20;;;7.80;99.90;;;;;;2098484;28;20040;-72
2021/11/08 01:52:45;;;;;;;10.25;2.53;;;7.80;99.90;;;;;;2098794;28;20040;-74
2021/11/08 01:53:46;;;;;;;11.27;3.30;;;7.80;99.90;;;;;;2098530;28;20051;-73
2021/11/08 01:54:47;;;;;;;12.00;3.30;;;7.80;99.90;;;;;;2098264;28;20073;-73
2021/11/08 01:55:48;;;;;;;15.88;3.30;;;7.80;99.90;;;;;;2090037;28;20033;-72
2021/11/08 01:56:51;;;;;;;12.65;3.22;;;7.80;99.90;;;;;;2098961;28;20039;-72
2021/11/08 01:57:52;;;;;;;7.80;2.90;;;7.90;99.90;;;;;;2100988;28;20020;-72
2021/11/08 01:58:53;;;;;;;11.75;3.00;;;7.80;99.90;;;;;;2102173;28;20048;-73
2021/11/08 01:59:55;;;;;;;12.02;3.35;;;7.90;99.90;;;;;;2102281;28;20035;-73
2021/11/08 02:00:57;;;;;;;12.32;3.40;;;7.90;99.90;;;;;;2099508;28;20021;-73
2021/11/08 02:01:59;;;;;;;8.40;3.03;;;7.90;99.90;;;;;;2098875;28;20027;-72
2021/11/08 02:03:00;;;;;;;9.65;3.13;;;7.90;99.90;;;;;;2099071;28;20047;-72
2021/11/08 02:04:00;;;;;;;12.75;3.20;;;7.90;99.90;;;;;;2098825;28;20043;-72
2021/11/08 02:05:03;;;;;;;13.50;3.10;;;7.90;99.90;;;;;;2098815;28;20112;-72
2021/11/08 02:06:04;;;;;;;10.20;3.33;;;7.90;99.90;;;;;;2098339;28;20032;-72
2021/11/08 02:07:05;;;;;;;10.40;3.35;;;7.90;99.90;;;;;;2089449;28;20029;-72
2021/11/08 02:08:06;;;;;;;9.57;2.88;;;7.90;99.90;;;;;;2089515;28;20033;-73
2021/11/08 02:09:06;;;;;;;11.23;3.30;;;7.90;99.90;;;;;;2098579;28;20379;-72
2021/11/08 02:10:11;;;;;;;11.13;3.00;;;7.90;99.90;;;;;;2089352;28;20064;-72
2021/11/08 02:11:12;;;;;;;12.18;3.35;;;7.90;99.90;;;;;;2089892;28;20033;-72
2021/11/08 02:12:12;;;;;;;11.00;3.42;;;7.80;99.90;;;;;;2098313;28;20028;-72
2021/11/08 02:13:13;;;;;;;9.70;3.08;;;7.80;99.90;;;;;;2098353;28;20567;-72
2021/11/08 02:14:14;;;;;;;9.30;3.35;;;7.80;99.90;;;;;;2098398;28;20041;-73
2021/11/08 02:15:18;;;;;;;12.98;3.63;;;7.80;99.90;;;;;;2098036;28;20059;-72
2021/11/08 02:16:19;;;;;;;12.98;3.38;;;7.70;99.90;;;;;;2097556;28;20121;-72
2021/11/08 02:17:21;;;;;;;11.18;3.28;;;7.70;99.90;;;;;;2098222;28;20554;-72
2021/11/08 02:18:23;;;;;;;10.82;3.47;;;7.70;99.90;;;;;;2098288;28;20145;-72
2021/11/08 02:19:24;;;;;;;13.10;3.50;;;7.70;99.90;;;;;;2097740;28;20044;-72
2021/11/08 02:20:28;;;;;;;11.00;3.10;;;7.70;99.90;;;;;;2097167;28;20416;-72
2021/11/08 02:21:30;;;;;;;11.90;3.67;;;7.70;99.90;;;;;;2097693;28;20150;-70
2021/11/08 02:22:30;;;;;;;10.07;3.20;;;7.70;99.90;;;;;;2098106;28;20031;-70
2021/11/08 02:23:31;;;;;;;15.32;3.60;;;7.70;99.90;;;;;;2097575;28;20102;-70
2021/11/08 02:24:34;;;;;;;17.60;3.60;;;7.70;99.90;;;;;;2097455;28;20065;-70
2021/11/08 02:25:37;;;;;;;10.68;3.70;;;7.70;99.90;;;;;;2097459;28;20040;-72
2021/11/08 02:26:38;;;;;;;17.75;3.90;;;7.70;99.90;;;;;;2097967;28;20027;-70
2021/11/08 02:27:42;;;;;;;11.50;3.67;;;7.70;99.90;;;;;;2097343;28;20578;-72
2021/11/08 02:28:45;;;;;;;14.80;3.58;;;7.80;99.90;;;;;;2097230;28;20048;-70
2021/11/08 02:29:47;;;;;;;11.93;3.53;;;7.80;99.90;;;;;;2097443;28;20032;-72
2021/11/08 02:30:53;;;;;;;11.68;3.45;;;7.80;99.90;;;;;;2096921;28;20021;-72
2021/11/08 02:31:56;;;;;;;16.98;3.85;;;7.80;99.90;;;;;;2097779;28;20044;-72
2021/11/08 02:32:59;;;;;;;10.65;3.30;;;7.80;99.90;;;;;;2098089;28;20028;-72
2021/11/08 02:34:00;;;;;;;11.90;3.85;;;7.80;99.90;;;;;;2097239;28;20522;-72
2021/11/08 02:35:02;;;;;;;13.57;3.83;;;7.80;99.90;;;;;;2097268;28;20105;-72
2021/11/08 02:36:02;;;;;;;11.23;3.63;;;7.80;99.90;;;;;;2097326;28;20029;-72
2021/11/08 02:37:04;;;;;;;10.20;3.42;;;7.80;99.90;;;;;;2097912;28;20547;-72
2021/11/08 02:38:08;;;;;;;12.88;3.17;;;7.80;99.90;;;;;;2097218;28;20435;-70
2021/11/08 02:39:14;;;;;;;12.52;3.72;;;7.80;99.90;;;;;;2097100;28;20040;-70
2021/11/08 02:40:25;;;;;;;12.93;3.70;;;7.80;99.90;;;;;;2097925;28;20047;-70
2021/11/08 02:41:26;;;;;;;11.18;3.50;;;7.80;99.90;;;;;;2096973;28;20036;-71
2021/11/08 02:42:27;;;;;;;13.40;3.55;;;7.80;99.90;;;;;;2097358;28;20067;-71
2021/11/08 02:43:29;;;;;;;12.13;3.72;;;7.80;99.90;;;;;;2097896;28;20102;-71
2021/11/08 02:44:29;;;;;;;16.10;3.60;;;7.80;99.90;;;;;;2089116;28;20040;-71
2021/11/08 02:45:31;;;;;;;11.65;3.17;;;7.80;99.90;;;;;;2089151;28;20031;-71
2021/11/08 02:46:37;;;;;;;12.80;3.50;;;7.80;99.90;;;;;;2097327;28;20024;-73
2021/11/08 02:47:43;;;;;;;9.90;3.40;;;7.90;99.90;;;;;;2097368;28;20374;-72
2021/11/08 02:48:46;;;;;;;12.88;3.35;;;7.90;99.90;;;;;;2097448;28;20028;-73
2021/11/08 02:49:48;;;;;;;9.77;3.30;;;7.90;99.90;;;;;;2097343;28;20086;-73
2021/11/08 02:50:56;;;;;;;13.73;3.10;;;7.90;99.90;;;;;;2088723;28;20525;-73
2021/11/08 02:52:05;;;;;;;12.10;3.65;;;7.90;99.90;;;;;;2097075;28;20052;-73
2021/11/08 02:53:10;;;;;;;13.30;3.95;;;7.90;99.90;;;;;;2097918;28;20036;-73
2021/11/08 02:54:21;;;;;;;11.35;3.28;;;7.90;99.90;;;;;;2097152;28;20016;-73
2021/11/08 02:55:25;;;;;;;12.10;3.47;;;7.90;99.90;;;;;;2097187;28;20039;-73
2021/11/08 02:56:27;;;;;;;18.15;3.75;;;7.90;99.90;;;;;;2097872;28;20476;-72
2021/11/08 02:57:28;;;;;;;10.77;3.40;;;7.90;99.90;;;;;;2097865;28;20024;-73
2021/11/08 02:58:29;;;;;;;14.73;3.40;;;7.90;99.90;;;;;;2097773;28;20107;-73
2021/11/08 02:59:31;;;;;;;11.75;3.47;;;7.90;99.90;;;;;;2097890;28;20036;-73
2021/11/08 03:00:32;;;;;;;16.13;3.85;;;7.90;99.90;;;;;;2096683;28;20031;-71
2021/11/08 03:01:33;;;;;;;13.15;3.67;;;7.90;99.90;;;;;;2096799;28;20024;-71
2021/11/08 03:02:37;;;;;;;13.95;3.35;;;7.90;99.90;;;;;;2097550;28;20020;-71
2021/11/08 03:03:42;;;;;;;14.77;3.63;;;7.90;99.90;;;;;;2097632;28;20008;-71
2021/11/08 03:04:47;;;;;;;15.43;3.30;;;7.90;99.90;;;;;;2097801;28;20036;-72
2021/11/08 03:05:47;;;;;;;12.35;3.40;;;7.90;99.90;;;;;;2097712;28;20032;-72
2021/11/08 03:06:48;;;;;;;12.38;3.45;;;7.90;99.90;;;;;;2097613;28;20033;-72
2021/11/08 03:07:49;;;;;;;12.77;3.50;;;7.90;99.90;;;;;;2097884;28;20144;-72
2021/11/08 03:08:51;;;;;;;12.52;3.28;;;7.90;99.90;;;;;;2097723;28;20028;-72
2021/11/08 03:09:58;;;;;;;13.18;3.40;;;7.90;99.90;;;;;;2097194;28;20028;-73
2021/11/08 03:10:59;;;;;;;8.63;3.42;;;7.90;99.90;;;;;;2089628;28;20083;-72
2021/11/08 03:12:09;;;;;;;11.32;3.15;;;7.90;99.90;;;;;;2088755;28;20119;-72
2021/11/08 03:13:16;;;;;;;11.20;3.47;;;8.00;99.90;;;;;;2097335;28;20762;-72
2021/11/08 03:14:20;;;;;;;14.63;3.63;;;7.90;99.90;;;;;;2098001;28;20032;-72
2021/11/08 03:15:41;;;;;;;13.25;3.45;;;8.00;99.90;;;;;;2097689;28;20476;-73
2021/11/08 03:16:50;;;;;;;12.52;3.75;;;8.00;99.90;;;;;;2097803;28;20032;-72
2021/11/08 03:18:01;;;;;;;12.90;3.10;;;7.90;99.90;;;;;;2097384;28;20500;-72
2021/11/08 03:19:13;;;;;;;15.70;3.80;;;8.00;99.90;;;;;;2089452;28;20060;-72
2021/11/08 03:20:18;;;;;;;14.85;3.53;;;7.90;99.90;;;;;;2090482;28;20033;-71
2021/11/08 03:21:19;;;;;;;14.73;3.40;;;7.90;99.90;;;;;;2096885;28;20497;-72
2021/11/08 03:22:25;;;;;;;11.98;3.33;;;7.90;99.90;;;;;;2097188;28;20479;-71
2021/11/08 03:23:27;;;;;;;13.93;3.70;;;7.90;99.90;;;;;;2097076;28;20021;-71
2021/11/08 03:24:45;;;;;;;12.52;3.30;;;7.90;99.90;;;;;;2097564;28;20032;-72
2021/11/08 03:26:03;;;;;;;11.90;3.42;;;8.00;99.90;;;;;;2097830;28;20688;-72
2021/11/08 03:28:19;;;;;;;14.98;3.88;;;8.00;99.90;;;;;;2097461;28;20032;-72
2021/11/08 03:29:20;;;;;;;13.85;3.65;;;8.00;99.90;;;;;;2097594;28;20376;-72
2021/11/08 03:30:27;;;;;;;11.60;3.28;;;8.00;99.90;;;;;;2097710;28;20121;-72
2021/11/08 03:31:29;;;;;;;13.80;3.38;;;8.00;99.90;;;;;;2097253;28;20094;-71
2021/11/08 03:32:30;;;;;;;14.15;3.45;;;8.00;99.90;;;;;;2097597;28;20051;-72
2021/11/08 03:33:32;;;;;;;9.57;3.03;;;8.00;99.90;;;;;;2097715;28;20060;-72
2021/11/08 03:34:36;;;;;;;10.50;3.10;;;8.00;99.90;;;;;;2097109;28;20245;-71
2021/11/08 03:35:39;;;;;;;11.02;3.35;;;8.00;99.90;;;;;;2097102;28;20030;-71
2021/11/08 03:36:40;;;;;;;9.63;2.80;;;8.00;99.90;;;;;;2088880;28;20024;-72
2021/11/08 03:37:43;;;;;;;19.50;3.75;;;8.00;99.90;;;;;;2088995;28;20025;-71
2021/11/08 03:38:44;;;;;;;16.13;3.30;;;8.00;99.90;;;;;;2097885;28;20127;-72
2021/11/08 03:39:45;;;;;;;13.60;3.38;;;8.10;99.90;;;;;;2098513;28;20464;-71
2021/11/08 03:40:46;;;;;;;15.32;3.63;;;8.10;99.90;;;;;;2097201;28;20036;-72
2021/11/08 03:41:47;;;;;;;12.10;3.30;;;8.00;99.90;;;;;;2089818;28;20040;-72
2021/11/08 03:42:49;;;;;;;11.50;3.42;;;8.00;99.90;;;;;;2098470;28;20380;-72
2021/11/08 03:43:50;;;;;;;12.32;3.40;;;8.00;99.90;;;;;;2098936;28;20104;-72
2021/11/08 03:44:51;;;;;;;14.20;3.40;;;8.00;99.90;;;;;;2099069;28;20484;-71
2021/11/08 03:45:52;;;;;;;10.60;3.00;;;8.00;99.90;;;;;;2098600;28;20043;-72
2021/11/08 03:46:52;;;;;;;9.50;3.08;;;8.00;99.90;;;;;;2097570;28;20139;-72
2021/11/08 03:47:55;;;;;;;11.70;3.33;;;8.10;99.90;;;;;;2097352;28;20490;-72
2021/11/08 03:48:56;;;;;;;11.82;3.10;;;8.10;99.90;;;;;;2097898;28;20491;-72
2021/11/08 03:49:57;;;;;;;13.57;3.47;;;8.10;99.90;;;;;;2097896;28;20056;-72
2021/11/08 03:50:58;;;;;;;13.88;3.33;;;8.00;99.90;;;;;;2097393;28;20028;-73
2021/11/08 03:52:00;;;;;;;13.82;3.55;;;8.10;99.90;;;;;;2097722;28;20115;-72
2021/11/08 03:53:03;;;;;;;10.40;3.50;;;8.00;99.90;;;;;;2097821;28;20450;-72
2021/11/08 03:54:06;;;;;;;15.18;3.72;;;8.10;99.90;;;;;;2097031;28;20043;-71
2021/11/08 03:55:09;;;;;;;10.82;3.20;;;8.10;99.90;;;;;;2097020;28;20131;-71
2021/11/08 03:56:10;;;;;;;11.57;3.45;;;8.10;99.90;;;;;;2096973;28;20032;-71
2021/11/08 03:57:11;;;;;;;13.50;3.45;;;8.10;99.90;;;;;;2088923;28;20040;-71
2021/11/08 03:58:12;;;;;;;10.98;3.55;;;8.10;99.90;;;;;;2097220;28;20507;-71
2021/11/08 03:59:12;;;;;;;14.32;3.22;;;8.10;99.90;;;;;;2097761;28;20043;-71
2021/11/08 04:00:15;;;;;;;10.98;3.47;;;8.00;99.90;;;;;;2097584;28;20047;-71
2021/11/08 04:01:16;;;;;;;16.08;3.70;;;8.10;99.90;;;;;;2096905;28;20684;-71
2021/11/08 04:02:17;;;;;;;17.60;4.00;;;8.10;99.90;;;;;;2097143;28;20038;-71
2021/11/08 04:03:17;;;;;;;14.40;3.20;;;8.10;99.90;;;;;;2097178;28;20441;-71
2021/11/08 04:04:18;;;;;;;12.00;3.60;;;8.10;99.90;;;;;;2097855;28;20025;-71
2021/11/08 04:05:19;;;;;;;10.82;3.33;;;8.10;99.90;;;;;;2097788;28;20033;-71
2021/11/08 04:06:20;;;;;;;13.52;3.20;;;8.10;99.90;;;;;;2098088;28;20043;-71
2021/11/08 04:07:21;;;;;;;14.18;3.25;;;8.10;99.90;;;;;;2097925;28;20115;-72
2021/11/08 04:08:22;;;;;;;17.50;3.47;;;8.10;99.90;;;;;;2097212;28;20024;-71
2021/11/08 04:09:24;;;;;;;14.02;3.13;;;8.10;99.90;;;;;;2097136;28;20119;-71
2021/11/08 04:10:25;;;;;;;14.02;3.38;;;8.10;99.90;;;;;;2097326;28;20082;-71
2021/11/08 04:11:27;;;;;;;13.07;3.15;;;8.10;99.90;;;;;;2096612;28;20088;-71
2021/11/08 04:12:28;;;;;;;14.30;3.35;;;8.10;99.90;;;;;;2097148;28;20086;-71
2021/11/08 04:13:36;;;;;;;16.83;3.67;;;8.10;99.90;;;;;;2097698;28;20024;-71
2021/11/08 04:14:39;;;;;;;13.80;3.35;;;8.10;99.90;;;;;;2097617;28;20024;-71
2021/11/08 04:15:43;;;;;;;12.25;3.22;;;8.10;99.90;;;;;;2097850;28;20431;-70
2021/11/08 04:16:44;;;;;;;16.92;3.72;;;8.10;99.90;;;;;;2097246;28;20032;-71
2021/11/08 04:17:46;;;;;;;13.32;3.20;;;8.10;99.90;;;;;;2096719;28;20833;-70
2021/11/08 04:18:51;;;;;;;15.50;3.35;;;8.10;99.90;;;;;;2096735;28;20029;-70
2021/11/08 04:19:52;;;;;;;12.30;3.58;;;8.10;99.90;;;;;;2097543;28;20146;-71
2021/11/08 04:20:56;;;;;;;13.30;3.35;;;8.10;99.90;;;;;;2096557;28;20020;-71
2021/11/08 04:21:59;;;;;;;17.23;3.50;;;8.10;99.90;;;;;;2096737;28;20028;-71
2021/11/08 04:23:01;;;;;;;13.05;3.15;;;8.10;99.90;;;;;;2097782;28;20076;-71
2021/11/08 04:24:02;;;;;;;13.20;3.53;;;8.10;99.90;;;;;;2096979;28;20028;-72
2021/11/08 04:25:04;;;;;;;15.10;3.72;;;8.10;99.90;;;;;;2097422;28;20434;-71
2021/11/08 04:26:06;;;;;;;13.57;3.25;;;8.10;99.90;;;;;;2098350;28;20032;-72
2021/11/08 04:27:09;;;;;;;13.18;3.05;;;8.20;99.90;;;;;;2097645;28;20028;-72
2021/11/08 04:28:10;;;;;;;17.10;4.13;;;8.10;99.90;;;;;;2097638;28;20032;-73
2021/11/08 04:29:11;;;;;;;9.70;2.90;;;8.20;99.90;;;;;;2097906;28;20036;-72
2021/11/08 04:30:13;;;;;;;18.98;3.70;;;8.20;99.90;;;;;;2097465;28;20027;-71
2021/11/08 04:31:14;;;;;;;16.08;4.00;;;8.20;99.90;;;;;;2096936;28;20035;-71
2021/11/08 04:32:16;;;;;;;14.02;4.07;;;8.20;99.90;;;;;;2097458;28;20146;-73
2021/11/08 04:34:29;;;;;;;13.00;3.78;;;8.20;99.90;;;;;;2096926;28;20021;-72
2021/11/08 04:35:45;;;;;;;15.68;3.25;;;8.20;99.90;;;;;;2097095;28;20104;-72
2021/11/08 04:42:28;;;;;;;13.20;3.53;;;8.20;99.90;;;;;;2097026;28;20480;-72
2021/11/08 04:43:49;;;;;;;10.23;3.50;;;8.20;99.90;;;;;;2097168;28;20040;-71
2021/11/08 04:49:52;;;;;;;15.23;3.47;;;8.20;99.90;;;;;;2097048;28;20024;-73
2021/11/08 04:50:58;;;;;;;14.88;3.63;;;8.20;99.90;;;;;;2096715;28;20044;-72
2021/11/08 04:55:17;;;;;;;15.43;3.40;;;8.10;99.90;;;;;;2097475;28;20067;-71
2021/11/08 05:23:46;;;;;;;15.80;3.53;;;8.10;99.90;;;;;;2098935;28;20103;-72
2021/11/08 05:28:19;;;;;;;18.45;3.70;;;8.20;99.90;;;;;;2098805;28;20520;-72
2021/11/08 05:30:24;;;;;;;15.52;3.72;;;8.20;99.90;;;;;;2098224;28;20126;-71
2021/11/08 05:31:24;;;;;;;13.20;3.60;;;8.20;99.90;;;;;;2097826;28;20036;-72
2021/11/08 05:32:28;;;;;;;13.52;3.53;;;8.20;99.90;;;;;;2098000;28;20125;-72
2021/11/08 05:33:29;;;;;;;17.88;3.67;;;8.20;99.90;;;;;;2097959;28;20024;-72
2021/11/08 05:34:30;;;;;;;13.15;3.60;;;8.20;99.90;;;;;;2098723;28;20036;-72
2021/11/08 05:35:31;;;;;;;14.27;3.38;;;8.20;99.90;;;;;;2097954;28;20464;-72
2021/11/08 05:36:31;;;;;;;13.68;3.70;;;8.20;99.90;;;;;;2097808;28;20033;-72
2021/11/08 05:37:32;;;;;;;14.77;3.67;;;8.20;99.90;;;;;;2098642;28;20029;-71
2021/11/08 05:38:33;;;;;;;15.25;3.67;;;8.20;99.90;;;;;;2097879;28;20104;-73
2021/11/08 05:39:35;;;;;;;14.90;3.60;;;8.20;99.90;;;;;;2089650;28;20036;-74
2021/11/08 05:40:37;;;;;;;15.38;3.70;;;8.20;99.90;;;;;;2097829;28;20022;-73
2021/11/08 05:41:40;;;;;;;15.65;3.70;;;8.20;99.90;;;;;;2089664;28;20116;-75
2021/11/08 05:42:41;;;;;;;19.70;4.50;;;8.20;99.90;;;;;;2098367;28;20094;-74
2021/11/08 05:43:42;;;;;;;18.55;4.32;;;8.20;99.90;;;;;;2098075;28;20055;-74
2021/11/08 05:44:43;;;;;;;19.33;3.80;;;8.20;99.90;;;;;;2098014;28;20028;-73
2021/11/08 05:45:44;;;;;;;15.48;3.75;;;8.20;99.90;;;;;;2097960;28;20036;-71
2021/11/08 05:46:44;;;;;;;16.52;4.25;;;8.20;99.90;;;;;;2097789;28;20092;-69
2021/11/08 05:47:46;;;;;;;16.33;4.15;;;8.10;99.90;;;;;;2098194;28;20115;-71
2021/11/08 05:48:47;;;;;;;14.00;3.67;;;8.20;99.90;;;;;;2098449;28;20037;-71
2021/11/08 05:49:48;;;;;;;17.80;4.07;;;8.20;99.90;;;;;;2098506;28;20063;-71
2021/11/08 05:50:49;;;;;;;13.63;3.65;;;8.20;99.90;;;;;;2097955;28;20037;-73
2021/11/08 05:51:49;;;;;;;17.65;4.35;;;8.20;99.90;;;;;;2097494;28;20060;-72
2021/11/08 05:52:52;;;;;;;20.15;4.00;;;8.20;99.90;;;;;;2097802;28;20063;-74
2021/11/08 05:53:53;;;;;;;15.18;4.00;;;8.20;99.90;;;;;;2097721;28;20039;-71
2021/11/08 05:54:54;;;;;;;17.83;3.95;;;8.20;99.90;;;;;;2098339;28;20036;-72
2021/11/08 05:56:20;;;;;;;14.85;3.80;;;8.20;99.90;;;;;;2097663;28;20110;-73
2021/11/08 05:57:40;;;;;;;;;;;8.20;99.90;;;;;;2098453;28;20154;-72
2021/11/08 06:01:45;;;;;;;15.95;4.07;;;8.20;99.90;;;;;;2096999;28;20036;-71
2021/11/08 06:50:09;;;;;;;12.18;4.30;;;8.40;99.90;;;;;;2093816;28;20456;-71
2021/11/08 06:51:10;;;;;;;16.70;3.72;;;8.50;99.90;;;;;;2092912;28;20057;-71
2021/11/08 06:52:13;;;;;;;14.32;4.10;;;8.50;99.90;;;;;;2093479;28;20103;-70
2021/11/08 06:53:18;;;;;;;14.27;4.20;;;8.50;99.90;;;;;;2094321;28;20090;-70
2021/11/08 06:54:20;;;;;;;13.38;4.28;;;8.50;99.90;;;;;;2094552;28;20056;-71
2021/11/08 06:55:21;;;;;;;18.27;4.50;;;8.50;99.90;;;;;;2094429;28;20029;-71
2021/11/08 06:56:27;;;;;;;18.50;4.60;;;8.50;99.90;;;;;;2085469;28;20036;-71
2021/11/08 06:57:42;;;;;;;14.98;4.40;;;8.60;99.90;;;;;;2086879;28;20021;-71
2021/11/08 06:58:43;;;;;;;12.90;4.07;;;8.50;99.90;;;;;;2113595;28;20391;-75
2021/11/08 06:59:47;;;;;;;16.17;4.18;;;8.50;99.90;;;;;;2086724;28;20075;-71
2021/11/08 07:00:49;;;;;;;17.35;4.30;;;8.50;99.90;;;;;;2093991;28;20096;-71
2021/11/08 07:01:51;;;;;;;14.55;4.03;;;8.50;99.90;;;;;;2093649;28;20447;-71
2021/11/08 07:02:51;;;;;;;16.88;4.60;;;8.50;99.90;;;;;;2093813;28;20032;-70
2021/11/08 07:03:52;;;;;;;19.80;4.78;;;8.50;99.90;;;;;;2094411;28;20025;-71
2021/11/08 07:04:53;;;;;;;14.63;4.30;;;8.50;99.90;;;;;;2085300;28;20053;-70
2021/11/08 07:05:54;;;;;;;14.20;4.00;;;8.50;99.90;;;;;;2085295;28;20566;-71
2021/11/08 07:06:55;;;;;;;13.55;4.13;;;8.50;99.90;;;;;;2093854;28;20029;-71
2021/11/08 07:07:55;;;;;;;12.15;3.67;;;8.50;99.90;;;;;;2094147;28;20025;-70
2021/11/08 07:08:56;;;;;;;15.27;4.20;;;8.50;99.90;;;;;;2093577;28;20036;-71
2021/11/08 07:09:56;;;;;;;17.25;4.03;;;8.50;99.90;;;;;;2093940;28;20399;-71